createdAt,value
2022-09-12T00:00:57.250Z,13.88
2022-09-12T00:01:58.504Z,13.90
2022-09-12T00:02:57.171Z,13.88
2022-09-12T00:03:59.810Z,13.86
2022-09-12T00:04:57.159Z,13.86
2022-09-12T00:05:57.146Z,13.86
2022-09-12T00:06:57.129Z,13.79
2022-09-12T00:07:57.263Z,13.86
2022-09-12T00:08:57.105Z,13.84
2022-09-12T00:09:58.158Z,13.83
2022-09-12T00:10:59.800Z,13.80
2022-09-12T00:11:57.815Z,13.73
2022-09-12T00:12:57.064Z,13.66
2022-09-12T00:13:57.088Z,13.79
2022-09-12T00:14:57.055Z,13.75
2022-09-12T00:15:57.045Z,13.73
2022-09-12T00:16:57.036Z,13.72
2022-09-12T00:17:57.042Z,13.75
2022-09-12T00:18:56.996Z,13.69
2022-09-12T00:20:00.851Z,13.71
2022-09-12T00:21:03.815Z,13.71
2022-09-12T00:21:56.971Z,13.71
2022-09-12T00:22:56.976Z,13.71
2022-09-12T00:23:56.976Z,13.71
2022-09-12T00:24:57.813Z,13.73
2022-09-12T00:25:56.933Z,13.75
2022-09-12T00:26:56.910Z,13.68
2022-09-12T00:27:56.908Z,13.65
2022-09-12T00:28:57.796Z,13.65
2022-09-12T00:29:56.921Z,13.65
2022-09-12T00:30:56.877Z,13.61
2022-09-12T00:31:56.892Z,13.59
2022-09-12T00:32:57.802Z,13.55
2022-09-12T00:33:56.843Z,13.62
2022-09-12T00:34:56.820Z,13.62
2022-09-12T00:35:56.836Z,13.68
2022-09-12T00:36:56.794Z,13.50
2022-09-12T00:37:56.797Z,13.55
2022-09-12T00:38:57.298Z,13.59
2022-09-12T00:39:56.826Z,13.53
2022-09-12T00:40:56.763Z,13.50
2022-09-12T00:41:56.745Z,13.53
2022-09-12T00:42:56.729Z,13.55
2022-09-12T00:43:56.721Z,13.59
2022-09-12T00:44:56.744Z,13.54
2022-09-12T00:45:56.722Z,13.54
2022-09-12T00:46:56.708Z,13.54
2022-09-12T00:47:56.707Z,13.54
2022-09-12T00:48:56.650Z,13.51
2022-09-12T00:49:56.663Z,13.47
2022-09-12T00:50:56.649Z,13.47
2022-09-12T00:51:56.663Z,13.43
2022-09-12T00:52:56.631Z,13.39
2022-09-12T00:54:11.318Z,13.38
2022-09-12T00:54:56.608Z,13.36
2022-09-12T00:55:56.608Z,13.32
2022-09-12T00:56:56.848Z,13.41
2022-09-12T00:57:56.593Z,13.32
2022-09-12T00:58:56.567Z,13.36
2022-09-12T00:59:57.302Z,13.29
2022-09-12T01:00:56.604Z,13.31
2022-09-12T01:01:56.978Z,13.38
2022-09-12T01:02:56.567Z,13.35
2022-09-12T01:03:56.500Z,13.29
2022-09-12T01:04:56.500Z,13.31
2022-09-12T01:05:59.308Z,13.22
2022-09-12T01:06:56.467Z,13.32
2022-09-12T01:07:59.307Z,13.28
2022-09-12T01:08:56.459Z,13.35
2022-09-12T01:09:56.437Z,13.32
2022-09-12T01:11:17.427Z,13.28
2022-09-12T01:11:56.831Z,13.27
2022-09-12T01:12:57.481Z,13.27
2022-09-12T01:13:56.393Z,13.28
2022-09-12T01:14:56.383Z,13.32
2022-09-12T01:15:56.367Z,13.28
2022-09-12T01:16:56.354Z,13.36
2022-09-12T01:17:57.307Z,13.28
2022-09-12T01:18:57.365Z,13.25
2022-09-12T01:19:56.327Z,13.32
2022-09-12T01:21:03.318Z,13.25
2022-09-12T01:21:56.803Z,13.31
2022-09-12T01:22:56.808Z,13.17
2022-09-12T01:23:56.305Z,13.27
2022-09-12T01:24:58.808Z,13.25
2022-09-12T01:25:56.265Z,13.24
2022-09-12T01:26:56.240Z,13.29
2022-09-12T01:27:56.265Z,13.29
2022-09-12T01:28:56.239Z,13.25
2022-09-12T01:29:56.340Z,13.31
2022-09-12T01:30:56.217Z,13.31
2022-09-12T01:32:02.869Z,13.19
2022-09-12T01:32:56.182Z,13.21
2022-09-12T01:33:56.173Z,13.17
2022-09-12T01:34:56.171Z,13.28
2022-09-12T01:35:56.184Z,13.19
2022-09-12T01:36:56.132Z,13.16
2022-09-12T01:37:56.130Z,13.07
2022-09-12T01:38:56.113Z,13.14
2022-09-12T01:39:56.153Z,13.14
2022-09-12T01:40:56.109Z,13.13
2022-09-12T01:41:56.113Z,13.09
2022-09-12T01:42:56.821Z,13.09
2022-09-12T01:43:56.066Z,13.03
2022-09-12T01:44:56.054Z,12.98
2022-09-12T01:45:56.088Z,13.07
2022-09-12T01:46:56.043Z,13.04
2022-09-12T01:47:56.031Z,12.98
2022-09-12T01:48:56.003Z,13.07
2022-09-12T01:49:55.992Z,13.09
2022-09-12T01:50:55.993Z,13.10
2022-09-12T01:51:55.987Z,13.04
2022-09-12T01:52:55.973Z,12.96
2022-09-12T01:53:55.950Z,12.91
2022-09-12T01:54:55.940Z,12.99
2022-09-12T01:55:58.810Z,12.98
2022-09-12T01:56:55.912Z,13.06
2022-09-12T01:57:56.841Z,13.01
2022-09-12T01:58:55.886Z,12.95
2022-09-12T01:59:55.882Z,12.92
2022-09-12T02:00:55.938Z,12.84
2022-09-12T02:01:55.932Z,12.85
2022-09-12T02:02:59.334Z,12.88
2022-09-12T02:03:55.832Z,12.94
2022-09-12T02:04:55.833Z,12.94
2022-09-12T02:05:55.817Z,12.91
2022-09-12T02:06:55.814Z,12.95
2022-09-12T02:07:55.801Z,13.03
2022-09-12T02:08:55.810Z,12.89
2022-09-12T02:09:55.764Z,13.01
2022-09-12T02:10:55.755Z,12.95
2022-09-12T02:11:55.747Z,12.91
2022-09-12T02:12:55.739Z,12.91
2022-09-12T02:13:55.755Z,12.84
2022-09-12T02:14:55.725Z,13.01
2022-09-12T02:15:55.693Z,12.92
2022-09-12T02:16:55.694Z,12.96
2022-09-12T02:17:55.686Z,12.81
2022-09-12T02:18:55.704Z,12.79
2022-09-12T02:19:55.651Z,12.94
2022-09-12T02:20:55.656Z,12.91
2022-09-12T02:21:55.627Z,12.88
2022-09-12T02:22:55.651Z,12.91
2022-09-12T02:23:55.844Z,12.88
2022-09-12T02:24:55.611Z,12.94
2022-09-12T02:25:55.588Z,12.95
2022-09-12T02:27:23.310Z,12.85
2022-09-12T02:27:55.568Z,12.88
2022-09-12T02:28:55.592Z,12.84
2022-09-12T02:29:56.309Z,12.79
2022-09-12T02:30:55.571Z,12.81
2022-09-12T02:31:58.316Z,12.80
2022-09-12T02:32:55.513Z,12.87
2022-09-12T02:33:56.320Z,12.73
2022-09-12T02:34:55.514Z,12.71
2022-09-12T02:35:55.851Z,12.71
2022-09-12T02:36:55.485Z,12.76
2022-09-12T02:37:55.459Z,12.74
2022-09-12T02:38:55.460Z,12.70
2022-09-12T02:39:55.531Z,12.67
2022-09-12T02:40:57.357Z,12.71
2022-09-12T02:42:02.320Z,12.70
2022-09-12T02:42:56.363Z,12.70
2022-09-12T02:43:55.387Z,12.61
2022-09-12T02:44:55.376Z,12.66
2022-09-12T02:45:55.466Z,12.63
2022-09-12T02:46:55.848Z,12.56
2022-09-12T02:47:55.342Z,12.58
2022-09-12T02:48:55.367Z,12.52
2022-09-12T02:50:10.315Z,12.61
2022-09-12T02:50:55.813Z,12.56
2022-09-12T02:51:55.815Z,12.49
2022-09-12T02:52:55.294Z,12.58
2022-09-12T02:53:55.295Z,12.49
2022-09-12T02:54:55.285Z,12.59
2022-09-12T02:55:55.258Z,12.62
2022-09-12T02:56:55.250Z,12.63
2022-09-12T02:57:55.266Z,12.59
2022-09-12T02:58:55.228Z,12.59
2022-09-12T02:59:55.210Z,12.58
2022-09-12T03:00:55.259Z,12.56
2022-09-12T03:01:55.257Z,12.48
2022-09-12T03:02:55.172Z,12.51
2022-09-12T03:03:55.189Z,12.52
2022-09-12T03:04:55.193Z,12.48
2022-09-12T03:05:55.143Z,12.52
2022-09-12T03:06:55.141Z,12.49
2022-09-12T03:07:55.119Z,12.44
2022-09-12T03:08:55.104Z,12.48
2022-09-12T03:09:55.110Z,12.51
2022-09-12T03:10:55.138Z,12.49
2022-09-12T03:11:55.348Z,12.51
2022-09-12T03:12:57.840Z,12.55
2022-09-12T03:13:55.056Z,12.49
2022-09-12T03:15:16.071Z,12.48
2022-09-12T03:15:57.821Z,12.48
2022-09-12T03:16:55.032Z,12.49
2022-09-12T03:17:55.012Z,12.49
2022-09-12T03:18:54.997Z,12.44
2022-09-12T03:19:54.995Z,12.51
2022-09-12T03:20:55.837Z,12.48
2022-09-12T03:21:54.974Z,12.54
2022-09-12T03:22:54.951Z,12.43
2022-09-12T03:23:54.947Z,12.51
2022-09-12T03:24:55.816Z,12.41
2022-09-12T03:25:54.946Z,12.36
2022-09-12T03:26:54.955Z,12.36
2022-09-12T03:27:55.823Z,12.33
2022-09-12T03:28:54.867Z,12.37
2022-09-12T03:29:54.880Z,12.40
2022-09-12T03:30:54.937Z,12.34
2022-09-12T03:31:54.888Z,12.31
2022-09-12T03:32:54.846Z,12.26
2022-09-12T03:33:54.842Z,12.26
2022-09-12T03:34:54.820Z,12.23
2022-09-12T03:35:54.816Z,12.22
2022-09-12T03:36:54.821Z,12.25
2022-09-12T03:37:54.791Z,12.22
2022-09-12T03:38:54.789Z,12.23
2022-09-12T03:39:54.780Z,12.18
2022-09-12T03:40:55.158Z,12.22
2022-09-12T03:41:54.743Z,12.19
2022-09-12T03:42:54.786Z,12.23
2022-09-12T03:43:54.725Z,12.22
2022-09-12T03:44:54.716Z,12.23
2022-09-12T03:45:54.803Z,12.21
2022-09-12T03:46:54.692Z,12.19
2022-09-12T03:47:54.688Z,12.22
2022-09-12T03:48:54.682Z,12.12
2022-09-12T03:49:54.683Z,12.15
2022-09-12T03:50:54.852Z,12.12
2022-09-12T03:51:54.654Z,12.11
2022-09-12T03:52:54.621Z,12.18
2022-09-12T03:53:54.646Z,12.22
2022-09-12T03:54:54.605Z,12.21
2022-09-12T03:55:54.599Z,12.15
2022-09-12T03:56:54.584Z,12.19
2022-09-12T03:57:55.316Z,12.23
2022-09-12T03:58:54.567Z,12.21
2022-09-12T03:59:54.854Z,12.19
2022-09-12T04:00:54.600Z,12.23
2022-09-12T04:01:54.561Z,12.22
2022-09-12T04:02:54.509Z,12.22
2022-09-12T04:03:54.510Z,12.22
2022-09-12T04:04:54.517Z,12.25
2022-09-12T04:05:54.860Z,12.15
2022-09-12T04:06:54.487Z,12.16
2022-09-12T04:07:55.313Z,12.21
2022-09-12T04:08:54.454Z,12.19
2022-09-12T04:09:55.330Z,12.18
2022-09-12T04:10:54.436Z,12.15
2022-09-12T04:11:54.430Z,12.22
2022-09-12T04:12:54.411Z,12.18
2022-09-12T04:13:54.387Z,12.19
2022-09-12T04:14:54.399Z,12.22
2022-09-12T04:15:54.420Z,12.19
2022-09-12T04:16:54.405Z,12.19
2022-09-12T04:17:54.348Z,12.13
2022-09-12T04:18:54.344Z,12.21
2022-09-12T04:19:54.329Z,12.15
2022-09-12T04:21:00.830Z,12.12
2022-09-12T04:21:54.301Z,12.21
2022-09-12T04:22:54.325Z,12.18
2022-09-12T04:23:54.284Z,12.23
2022-09-12T04:24:54.281Z,12.19
2022-09-12T04:25:54.259Z,12.19
2022-09-12T04:26:54.832Z,12.22
2022-09-12T04:27:54.238Z,12.15
2022-09-12T04:28:54.256Z,12.25
2022-09-12T04:29:54.221Z,12.22
2022-09-12T04:30:54.240Z,12.23
2022-09-12T04:31:54.191Z,12.18
2022-09-12T04:32:54.188Z,12.23
2022-09-12T04:33:56.820Z,12.16
2022-09-12T04:34:54.192Z,12.19
2022-09-12T04:35:54.143Z,12.23
2022-09-12T04:36:54.135Z,12.19
2022-09-12T04:37:54.135Z,12.25
2022-09-12T04:38:54.121Z,12.15
2022-09-12T04:39:54.132Z,12.15
2022-09-12T04:40:54.826Z,12.12
2022-09-12T04:41:54.119Z,12.05
2022-09-12T04:42:56.814Z,12.16
2022-09-12T04:43:54.062Z,12.05
2022-09-12T04:44:54.048Z,12.08
2022-09-12T04:45:54.088Z,12.05
2022-09-12T04:46:54.035Z,12.15
2022-09-12T04:47:54.048Z,11.97
2022-09-12T04:48:56.895Z,12.00
2022-09-12T04:49:54.005Z,11.88
2022-09-12T04:50:53.982Z,12.01
2022-09-12T04:51:54.353Z,11.97
2022-09-12T04:52:53.956Z,12.03
2022-09-12T04:53:53.933Z,12.05
2022-09-12T04:54:53.941Z,11.98
2022-09-12T04:55:53.943Z,12.01
2022-09-12T04:56:53.924Z,12.03
2022-09-12T04:57:53.921Z,12.00
2022-09-12T04:58:54.820Z,11.96
2022-09-12T04:59:53.885Z,11.94
2022-09-12T05:00:53.969Z,12.00
2022-09-12T05:01:54.878Z,12.07
2022-09-12T05:02:53.884Z,12.04
2022-09-12T05:03:53.848Z,12.05
2022-09-12T05:04:53.829Z,12.12
2022-09-12T05:05:56.419Z,12.01
2022-09-12T05:06:53.804Z,11.98
2022-09-12T05:07:53.795Z,12.07
2022-09-12T05:08:53.784Z,11.97
2022-09-12T05:09:53.797Z,12.07
2022-09-12T05:10:53.791Z,12.11
2022-09-12T05:12:09.178Z,12.08
2022-09-12T05:12:54.738Z,12.12
2022-09-12T05:13:53.730Z,12.13
2022-09-12T05:14:53.724Z,12.13
2022-09-12T05:15:53.749Z,12.05
2022-09-12T05:16:53.770Z,12.13
2022-09-12T05:17:53.687Z,12.13
2022-09-12T05:18:53.698Z,12.13
2022-09-12T05:19:53.685Z,12.13
2022-09-12T05:20:53.663Z,12.07
2022-09-12T05:21:53.633Z,12.12
2022-09-12T05:22:53.634Z,12.18
2022-09-12T05:23:53.620Z,12.18
2022-09-12T05:24:53.615Z,12.12
2022-09-12T05:25:53.611Z,12.22
2022-09-12T05:26:53.589Z,12.26
2022-09-12T05:27:53.578Z,12.23
2022-09-12T05:28:53.563Z,12.26
2022-09-12T05:29:53.558Z,12.25
2022-09-12T05:30:56.401Z,12.30
2022-09-12T05:31:53.548Z,12.25
2022-09-12T05:32:53.519Z,12.22
2022-09-12T05:33:53.503Z,12.30
2022-09-12T05:34:53.508Z,12.29
2022-09-12T05:35:53.508Z,12.26
2022-09-12T05:36:53.465Z,12.23
2022-09-12T05:37:53.475Z,12.37
2022-09-12T05:38:53.455Z,12.44
2022-09-12T05:39:53.491Z,12.36
2022-09-12T05:40:53.423Z,12.38
2022-09-12T05:41:54.327Z,12.51
2022-09-12T05:42:54.329Z,12.51
2022-09-12T05:43:53.411Z,12.46
2022-09-12T05:44:53.390Z,12.51
2022-09-12T05:45:53.443Z,12.51
2022-09-12T05:46:53.368Z,12.56
2022-09-12T05:47:53.352Z,12.62
2022-09-12T05:48:56.298Z,12.58
2022-09-12T05:49:53.348Z,12.61
2022-09-12T05:50:55.840Z,12.55
2022-09-12T05:51:53.303Z,12.58
2022-09-12T05:52:55.832Z,12.54
2022-09-12T05:53:53.292Z,12.61
2022-09-12T05:54:53.371Z,12.59
2022-09-12T05:55:53.264Z,12.63
2022-09-12T05:56:53.349Z,12.71
2022-09-12T05:57:53.242Z,12.71
2022-09-12T05:58:53.232Z,12.77
2022-09-12T05:59:53.209Z,12.79
2022-09-12T06:00:53.227Z,12.85
2022-09-12T06:01:53.368Z,12.84
2022-09-12T06:02:53.184Z,12.85
2022-09-12T06:03:53.175Z,12.85
2022-09-12T06:04:55.842Z,12.92
2022-09-12T06:05:53.146Z,12.94
2022-09-12T06:06:53.168Z,12.95
2022-09-12T06:07:53.148Z,12.96
2022-09-12T06:08:53.117Z,12.95
2022-09-12T06:09:53.120Z,13.03
2022-09-12T06:10:53.841Z,12.96
2022-09-12T06:11:53.092Z,13.09
2022-09-12T06:12:53.076Z,13.13
2022-09-12T06:13:53.079Z,13.12
2022-09-12T06:14:53.357Z,13.10
2022-09-12T06:15:53.353Z,13.24
2022-09-12T06:16:53.136Z,13.19
2022-09-12T06:17:53.836Z,13.31
2022-09-12T06:18:53.000Z,13.29
2022-09-12T06:19:53.005Z,13.27
2022-09-12T06:20:52.981Z,13.36
2022-09-12T06:21:52.997Z,13.38
2022-09-12T06:22:52.974Z,13.44
2022-09-12T06:23:52.959Z,13.35
2022-09-12T06:24:57.759Z,13.44
2022-09-12T06:25:53.932Z,13.41
2022-09-12T06:26:52.990Z,13.54
2022-09-12T06:27:52.913Z,13.61
2022-09-12T06:28:52.890Z,13.61
2022-09-12T06:29:53.834Z,13.63
2022-09-12T06:30:52.912Z,13.61
2022-09-12T06:31:52.867Z,13.71
2022-09-12T06:32:52.866Z,13.71
2022-09-12T06:33:53.874Z,13.81
2022-09-12T06:34:59.336Z,13.79
2022-09-12T06:35:52.820Z,13.79
2022-09-12T06:36:52.817Z,13.87
2022-09-12T06:37:52.855Z,13.93
2022-09-12T06:38:55.351Z,13.88
2022-09-12T06:39:52.818Z,13.99
2022-09-12T06:40:52.755Z,13.99
2022-09-12T06:41:52.751Z,14.05
2022-09-12T06:42:52.744Z,14.09
2022-09-12T06:43:52.749Z,14.19
2022-09-12T06:44:52.719Z,14.26
2022-09-12T06:45:52.752Z,14.30
2022-09-12T06:46:52.693Z,14.38
2022-09-12T06:47:52.714Z,14.45
2022-09-12T06:48:52.679Z,14.48
2022-09-12T06:49:52.664Z,14.60
2022-09-12T06:50:52.654Z,14.60
2022-09-12T06:51:52.636Z,14.66
2022-09-12T06:52:52.640Z,14.69
2022-09-12T06:53:52.632Z,14.69
2022-09-12T06:54:52.617Z,14.80
2022-09-12T06:55:53.613Z,14.79
2022-09-12T06:56:52.877Z,14.93
2022-09-12T06:57:52.579Z,14.94
2022-09-12T06:58:53.341Z,15.00
2022-09-12T06:59:53.342Z,15.01
2022-09-12T07:00:57.213Z,15.01
2022-09-12T07:01:57.009Z,15.00
2022-09-12T07:02:52.516Z,15.12
2022-09-12T07:03:53.370Z,15.03
2022-09-12T07:04:52.510Z,15.11
2022-09-12T07:05:52.488Z,15.12
2022-09-12T07:06:52.475Z,15.19
2022-09-12T07:07:59.374Z,15.20
2022-09-12T07:08:52.449Z,15.23
2022-09-12T07:09:52.452Z,15.28
2022-09-12T07:10:52.465Z,15.33
2022-09-12T07:11:52.446Z,15.31
2022-09-12T07:12:53.338Z,15.43
2022-09-12T07:13:53.343Z,15.38
2022-09-12T07:14:52.398Z,15.44
2022-09-12T07:15:52.604Z,15.59
2022-09-12T07:16:52.420Z,15.53
2022-09-12T07:17:59.345Z,15.64
2022-09-12T07:18:59.338Z,15.67
2022-09-12T07:19:52.837Z,15.68
2022-09-12T07:20:52.843Z,15.76
2022-09-12T07:21:56.538Z,15.78
2022-09-12T07:22:53.301Z,15.91
2022-09-12T07:23:54.858Z,15.92
2022-09-12T07:24:52.835Z,15.96
2022-09-12T07:25:52.268Z,15.99
2022-09-12T07:26:52.376Z,16.06
2022-09-12T07:27:54.846Z,16.07
2022-09-12T07:28:52.241Z,16.14
2022-09-12T07:29:52.240Z,16.17
2022-09-12T07:30:52.237Z,16.30
2022-09-12T07:31:52.187Z,16.22
2022-09-12T07:32:53.204Z,16.30
2022-09-12T07:33:58.862Z,16.37
2022-09-12T07:34:52.179Z,16.33
2022-09-12T07:35:52.145Z,16.42
2022-09-12T07:36:54.846Z,16.40
2022-09-12T07:37:52.839Z,16.45
2022-09-12T07:38:56.738Z,16.50
2022-09-12T07:39:52.112Z,16.55
2022-09-12T07:40:58.846Z,16.55
2022-09-12T07:41:54.857Z,16.59
2022-09-12T07:42:52.070Z,16.57
2022-09-12T07:43:52.059Z,16.60
2022-09-12T07:44:52.067Z,16.65
2022-09-12T07:45:52.050Z,16.67
2022-09-12T07:46:54.852Z,16.52
2022-09-12T07:47:52.005Z,16.59
2022-09-12T07:48:51.999Z,16.57
2022-09-12T07:49:52.000Z,16.72
2022-09-12T07:50:52.021Z,16.70
2022-09-12T07:51:51.980Z,16.73
2022-09-12T07:52:51.948Z,16.80
2022-09-12T07:53:52.851Z,16.85
2022-09-12T07:54:52.834Z,16.82
2022-09-12T07:55:54.851Z,16.85
2022-09-12T07:56:52.871Z,16.88
2022-09-12T07:57:52.876Z,16.85
2022-09-12T07:58:51.888Z,16.98
2022-09-12T07:59:53.522Z,16.95
2022-09-12T08:00:51.868Z,16.96
2022-09-12T08:01:51.878Z,16.95
2022-09-12T08:02:51.935Z,16.95
2022-09-12T08:03:51.840Z,16.95
2022-09-12T08:04:51.821Z,16.99
2022-09-12T08:05:52.336Z,16.98
2022-09-12T08:06:51.802Z,17.03
2022-09-12T08:07:55.796Z,17.09
2022-09-12T08:08:52.778Z,17.15
2022-09-12T08:09:51.776Z,17.20
2022-09-12T08:10:51.753Z,17.28
2022-09-12T08:11:51.782Z,17.38
2022-09-12T08:12:51.740Z,17.30
2022-09-12T08:13:55.046Z,17.46
2022-09-12T08:14:54.358Z,17.43
2022-09-12T08:15:52.354Z,17.39
2022-09-12T08:16:52.346Z,17.53
2022-09-12T08:17:51.696Z,17.42
2022-09-12T08:18:51.670Z,17.49
2022-09-12T08:19:51.657Z,17.58
2022-09-12T08:20:51.646Z,17.63
2022-09-12T08:21:51.636Z,17.63
2022-09-12T08:22:51.637Z,17.49
2022-09-12T08:23:54.348Z,17.53
2022-09-12T08:24:51.609Z,17.71
2022-09-12T08:25:51.586Z,17.62
2022-09-12T08:26:52.604Z,17.68
2022-09-12T08:27:51.567Z,17.74
2022-09-12T08:28:51.553Z,17.77
2022-09-12T08:29:51.568Z,17.92
2022-09-12T08:30:52.395Z,17.81
2022-09-12T08:31:55.225Z,17.83
2022-09-12T08:32:52.528Z,17.91
2022-09-12T08:33:51.499Z,17.87
2022-09-12T08:34:51.494Z,17.87
2022-09-12T08:35:51.472Z,17.86
2022-09-12T08:36:51.491Z,17.91
2022-09-12T08:37:54.352Z,17.95
2022-09-12T08:38:54.432Z,17.87
2022-09-12T08:39:59.432Z,17.99
2022-09-12T08:40:51.424Z,17.96
2022-09-12T08:41:51.878Z,18.04
2022-09-12T08:42:51.412Z,18.14
2022-09-12T08:43:56.063Z,18.13
2022-09-12T08:44:51.389Z,18.14
2022-09-12T08:45:51.504Z,18.14
2022-09-12T08:46:52.352Z,18.17
2022-09-12T08:47:51.383Z,18.25
2022-09-12T08:48:51.859Z,18.14
2022-09-12T08:49:51.404Z,18.10
2022-09-12T08:50:51.313Z,18.21
2022-09-12T08:52:05.846Z,18.19
2022-09-12T08:52:51.307Z,18.31
2022-09-12T08:53:51.281Z,18.16
2022-09-12T08:54:51.268Z,18.25
2022-09-12T08:55:51.849Z,18.34
2022-09-12T08:56:51.374Z,18.35
2022-09-12T08:57:51.236Z,18.32
2022-09-12T08:58:51.237Z,18.31
2022-09-12T08:59:51.385Z,18.35
2022-09-12T09:00:57.869Z,18.39
2022-09-12T09:01:51.264Z,18.35
2022-09-12T09:02:51.312Z,18.32
2022-09-12T09:03:51.171Z,18.35
2022-09-12T09:04:51.155Z,18.46
2022-09-12T09:05:51.383Z,18.41
2022-09-12T09:06:51.140Z,18.59
2022-09-12T09:07:53.872Z,18.49
2022-09-12T09:08:51.130Z,18.56
2022-09-12T09:09:51.112Z,18.64
2022-09-12T09:10:51.089Z,18.68
2022-09-12T09:11:51.087Z,18.74
2022-09-12T09:12:51.066Z,18.76
2022-09-12T09:13:51.054Z,18.76
2022-09-12T09:14:51.089Z,18.74
2022-09-12T09:15:51.092Z,18.83
2022-09-12T09:16:51.872Z,18.82
2022-09-12T09:17:51.018Z,18.91
2022-09-12T09:18:51.010Z,19.01
2022-09-12T09:19:51.193Z,19.12
2022-09-12T09:20:51.010Z,19.17
2022-09-12T09:22:12.865Z,19.27
2022-09-12T09:22:50.967Z,19.35
2022-09-12T09:23:50.959Z,19.39
2022-09-12T09:24:53.855Z,19.45
2022-09-12T09:25:50.930Z,19.50
2022-09-12T09:26:50.929Z,19.57
2022-09-12T09:27:50.912Z,19.45
2022-09-12T09:28:51.853Z,19.47
2022-09-12T09:29:50.874Z,19.55
2022-09-12T09:30:50.958Z,19.64
2022-09-12T09:31:50.915Z,19.64
2022-09-12T09:32:50.897Z,19.70
2022-09-12T09:33:50.840Z,19.65
2022-09-12T09:34:50.819Z,19.55
2022-09-12T09:35:51.360Z,19.75
2022-09-12T09:36:50.807Z,19.71
2022-09-12T09:37:53.597Z,19.70
2022-09-12T09:38:51.887Z,19.75
2022-09-12T09:39:50.814Z,19.61
2022-09-12T09:40:53.371Z,19.68
2022-09-12T09:41:53.354Z,19.64
2022-09-12T09:42:50.737Z,19.61
2022-09-12T09:43:50.762Z,19.50
2022-09-12T09:44:50.715Z,19.38
2022-09-12T09:45:50.773Z,19.38
2022-09-12T09:46:50.699Z,19.35
2022-09-12T09:47:50.669Z,19.35
2022-09-12T09:48:51.743Z,19.46
2022-09-12T09:49:50.672Z,19.45
2022-09-12T09:50:57.363Z,19.45
2022-09-12T09:51:51.356Z,19.45
2022-09-12T09:52:51.376Z,19.46
2022-09-12T09:53:50.614Z,19.65
2022-09-12T09:54:50.609Z,19.62
2022-09-12T09:55:50.615Z,19.78
2022-09-12T09:56:51.367Z,19.79
2022-09-12T09:57:50.562Z,19.82
2022-09-12T09:58:51.363Z,19.86
2022-09-12T09:59:51.453Z,19.98
2022-09-12T10:00:54.842Z,20.08
2022-09-12T10:01:52.489Z,20.25
2022-09-12T10:02:50.645Z,20.34
2022-09-12T10:03:52.405Z,20.33
2022-09-12T10:04:50.499Z,20.41
2022-09-12T10:05:50.480Z,20.41
2022-09-12T10:06:51.366Z,20.41
2022-09-12T10:07:50.484Z,20.26
2022-09-12T10:08:50.427Z,20.26
2022-09-12T10:09:53.363Z,20.26
2022-09-12T10:11:05.362Z,20.20
2022-09-12T10:11:53.366Z,20.19
2022-09-12T10:12:50.883Z,20.27
2022-09-12T10:13:50.396Z,20.46
2022-09-12T10:14:50.366Z,20.37
2022-09-12T10:15:50.399Z,20.22
2022-09-12T10:16:50.373Z,20.13
2022-09-12T10:17:50.388Z,20.12
2022-09-12T10:18:50.328Z,20.16
2022-09-12T10:20:10.572Z,20.19
2022-09-12T10:20:51.315Z,20.20
2022-09-12T10:21:50.409Z,20.23
2022-09-12T10:22:50.275Z,20.22
2022-09-12T10:23:50.280Z,20.31
2022-09-12T10:24:50.869Z,20.37
2022-09-12T10:25:50.253Z,20.17
2022-09-12T10:26:54.497Z,20.20
2022-09-12T10:27:51.243Z,20.26
2022-09-12T10:28:50.219Z,20.34
2022-09-12T10:29:50.268Z,20.57
2022-09-12T10:30:50.249Z,20.72
2022-09-12T10:31:50.170Z,20.76
2022-09-12T10:32:50.165Z,20.78
2022-09-12T10:33:50.468Z,20.98
2022-09-12T10:34:50.158Z,20.98
2022-09-12T10:35:50.122Z,20.96
2022-09-12T10:36:52.883Z,21.09
2022-09-12T10:37:52.273Z,21.16
2022-09-12T10:38:50.104Z,21.31
2022-09-12T10:39:50.188Z,21.28
2022-09-12T10:41:04.870Z,21.37
2022-09-12T10:41:50.092Z,21.37
2022-09-12T10:42:50.069Z,21.42
2022-09-12T10:43:52.867Z,21.55
2022-09-12T10:44:50.043Z,21.66
2022-09-12T10:45:50.064Z,21.61
2022-09-12T10:46:50.011Z,21.64
2022-09-12T10:47:49.991Z,21.71
2022-09-12T10:48:50.015Z,21.66
2022-09-12T10:49:56.866Z,21.85
2022-09-12T10:50:49.965Z,21.77
2022-09-12T10:51:49.967Z,21.82
2022-09-12T10:52:50.887Z,21.86
2022-09-12T10:53:49.938Z,21.89
2022-09-12T10:54:49.952Z,21.85
2022-09-12T10:55:49.916Z,21.99
2022-09-12T10:56:49.893Z,22.05
2022-09-12T10:57:49.889Z,22.09
2022-09-12T10:58:49.907Z,22.20
2022-09-12T10:59:49.869Z,22.19
2022-09-12T11:00:49.909Z,22.11
2022-09-12T11:01:49.907Z,22.02
2022-09-12T11:02:49.884Z,22.02
2022-09-12T11:03:50.376Z,21.98
2022-09-12T11:04:49.821Z,22.05
2022-09-12T11:05:49.791Z,22.14
2022-09-12T11:06:49.808Z,22.17
2022-09-12T11:07:50.384Z,22.19
2022-09-12T11:08:49.784Z,22.30
2022-09-12T11:09:49.762Z,22.23
2022-09-12T11:10:49.767Z,22.30
2022-09-12T11:11:49.714Z,22.33
2022-09-12T11:12:50.379Z,22.42
2022-09-12T11:13:49.719Z,22.51
2022-09-12T11:14:49.689Z,22.66
2022-09-12T11:15:49.966Z,22.79
2022-09-12T11:16:49.697Z,22.82
2022-09-12T11:17:49.669Z,22.86
2022-09-12T11:18:49.664Z,22.91
2022-09-12T11:19:52.387Z,22.93
2022-09-12T11:20:49.640Z,22.63
2022-09-12T11:21:49.643Z,22.74
2022-09-12T11:22:50.387Z,22.74
2022-09-12T11:23:52.395Z,22.76
2022-09-12T11:24:49.591Z,22.91
2022-09-12T11:25:50.375Z,22.78
2022-09-12T11:26:49.590Z,22.78
2022-09-12T11:27:49.551Z,22.93
2022-09-12T11:28:50.065Z,23.07
2022-09-12T11:29:49.536Z,23.35
2022-09-12T11:30:50.432Z,23.37
2022-09-12T11:31:49.509Z,23.44
2022-09-12T11:32:49.522Z,23.50
2022-09-12T11:33:49.600Z,23.56
2022-09-12T11:34:49.498Z,23.72
2022-09-12T11:35:54.455Z,23.75
2022-09-12T11:36:50.464Z,23.78
2022-09-12T11:37:49.455Z,23.96
2022-09-12T11:38:49.431Z,24.04
2022-09-12T11:39:53.457Z,24.12
2022-09-12T11:40:50.433Z,24.14
2022-09-12T11:41:49.409Z,24.26
2022-09-12T11:42:49.391Z,24.05
2022-09-12T11:43:49.405Z,23.96
2022-09-12T11:44:49.376Z,23.90
2022-09-12T11:45:49.433Z,23.96
2022-09-12T11:46:51.904Z,23.96
2022-09-12T11:47:49.341Z,23.90
2022-09-12T11:48:49.326Z,23.97
2022-09-12T11:49:49.335Z,24.21
2022-09-12T11:50:49.321Z,24.31
2022-09-12T11:51:49.295Z,24.34
2022-09-12T11:52:49.289Z,24.48
2022-09-12T11:53:49.273Z,24.49
2022-09-12T11:54:53.513Z,24.26
2022-09-12T11:55:49.263Z,24.27
2022-09-12T11:56:49.231Z,24.08
2022-09-12T11:57:49.223Z,24.14
2022-09-12T11:58:49.219Z,24.29
2022-09-12T11:59:49.197Z,24.34
2022-09-12T12:00:49.214Z,24.29
2022-09-12T12:01:49.203Z,24.51
2022-09-12T12:02:49.187Z,24.70
2022-09-12T12:03:52.965Z,24.61
2022-09-12T12:04:55.881Z,24.71
2022-09-12T12:05:49.152Z,24.83
2022-09-12T12:06:49.140Z,24.90
2022-09-12T12:07:49.138Z,24.86
2022-09-12T12:08:49.887Z,24.83
2022-09-12T12:09:49.094Z,24.61
2022-09-12T12:10:49.081Z,24.53
2022-09-12T12:11:49.087Z,24.60
2022-09-12T12:12:49.056Z,24.64
2022-09-12T12:13:49.072Z,24.60
2022-09-12T12:14:49.042Z,24.71
2022-09-12T12:15:49.073Z,24.79
2022-09-12T12:16:49.036Z,24.86
2022-09-12T12:17:49.927Z,24.90
2022-09-12T12:18:48.996Z,24.83
2022-09-12T12:19:48.980Z,24.87
2022-09-12T12:20:48.975Z,24.67
2022-09-12T12:21:48.964Z,24.60
2022-09-12T12:22:51.910Z,24.51
2022-09-12T12:23:48.958Z,24.61
2022-09-12T12:24:48.932Z,24.61
2022-09-12T12:25:48.919Z,24.86
2022-09-12T12:26:48.931Z,24.97
2022-09-12T12:27:48.911Z,25.05
2022-09-12T12:28:49.484Z,25.34
2022-09-12T12:29:48.895Z,25.04
2022-09-12T12:30:51.511Z,25.02
2022-09-12T12:31:48.841Z,24.99
2022-09-12T12:32:48.846Z,25.11
2022-09-12T12:33:48.830Z,25.19
2022-09-12T12:34:48.851Z,25.20
2022-09-12T12:35:48.809Z,25.30
2022-09-12T12:36:48.814Z,25.44
2022-09-12T12:37:48.791Z,25.63
2022-09-12T12:38:48.793Z,25.78
2022-09-12T12:39:48.904Z,25.85
2022-09-12T12:40:48.755Z,25.81
2022-09-12T12:41:48.749Z,25.86
2022-09-12T12:42:48.731Z,25.91
2022-09-12T12:43:48.783Z,25.85
2022-09-12T12:44:48.712Z,25.59
2022-09-12T12:45:48.734Z,25.60
2022-09-12T12:46:48.684Z,25.49
2022-09-12T12:47:48.678Z,25.61
2022-09-12T12:48:48.687Z,25.39
2022-09-12T12:49:48.685Z,25.20
2022-09-12T12:50:48.658Z,25.12
2022-09-12T12:51:48.644Z,25.12
2022-09-12T12:52:48.628Z,25.08